createdAt,value
2023-02-27T00:01:41.167Z,100.00
2023-02-27T00:06:43.883Z,100.00
2023-02-27T00:11:46.768Z,100.00
2023-02-27T00:16:49.501Z,100.00
2023-02-27T00:21:52.779Z,100.00
2023-02-27T00:26:55.483Z,100.00
2023-02-27T00:31:58.793Z,100.00
2023-02-27T00:37:01.596Z,100.00
2023-02-27T00:42:04.549Z,100.00
2023-02-27T00:47:07.451Z,100.00
2023-02-27T00:52:11.224Z,100.00
2023-02-27T00:57:14.054Z,100.00
2023-02-27T01:02:17.390Z,100.00
2023-02-27T01:07:20.155Z,100.00
2023-02-27T01:12:23.044Z,100.00
2023-02-27T01:17:25.853Z,100.00
2023-02-27T01:22:28.658Z,100.00
2023-02-27T01:27:32.281Z,100.00
2023-02-27T01:32:35.124Z,100.00
2023-02-27T01:37:38.168Z,100.00
2023-02-27T01:42:41.061Z,100.00
2023-02-27T01:47:52.502Z,100.00
2023-02-27T01:52:58.989Z,100.00
2023-02-27T01:58:01.698Z,100.00
2023-02-27T02:03:25.926Z,100.00
2023-02-27T02:08:32.072Z,100.00
2023-02-27T02:13:35.430Z,100.00
2023-02-27T02:18:46.280Z,100.00
2023-02-27T02:24:08.013Z,100.00
2023-02-27T02:29:38.815Z,100.00
2023-02-27T02:35:00.173Z,100.00
2023-02-27T02:40:16.821Z,100.00
2023-02-27T02:45:38.376Z,100.00
2023-02-27T02:51:04.626Z,100.00
2023-02-27T02:56:23.294Z,100.00
2023-02-27T03:01:35.476Z,100.00
2023-02-27T03:06:43.417Z,100.00
2023-02-27T03:11:50.676Z,100.00
2023-02-27T03:16:58.163Z,100.00
2023-02-27T03:22:09.567Z,100.00
2023-02-27T03:27:13.191Z,100.00
2023-02-27T03:32:25.226Z,100.00
2023-02-27T03:37:52.376Z,100.00
2023-02-27T03:43:06.203Z,100.00
2023-02-27T03:48:09.240Z,100.00
2023-02-27T03:53:23.819Z,99.98
2023-02-27T03:58:26.822Z,99.98
2023-02-27T04:03:33.095Z,100.00
2023-02-27T04:09:04.983Z,100.00
2023-02-27T04:14:29.400Z,100.00
2023-02-27T04:19:44.083Z,100.00
2023-02-27T04:25:06.269Z,100.00
2023-02-27T04:30:42.902Z,100.00
2023-02-27T04:35:53.956Z,100.00
2023-02-27T04:41:09.850Z,100.00
2023-02-27T04:46:16.551Z,100.00
2023-02-27T04:51:25.203Z,100.00
2023-02-27T04:56:34.428Z,100.00
2023-02-27T05:01:42.127Z,100.00
2023-02-27T05:06:48.177Z,100.00
2023-02-27T05:11:59.702Z,100.00
2023-02-27T05:17:09.080Z,100.00
2023-02-27T05:22:25.191Z,100.00
2023-02-27T05:27:37.687Z,100.00
2023-02-27T05:32:49.237Z,100.00
2023-02-27T05:38:05.411Z,100.00
2023-02-27T05:43:22.990Z,100.00
2023-02-27T05:49:11.676Z,100.00
2023-02-27T05:54:24.941Z,99.57
2023-02-27T05:59:53.766Z,98.36
2023-02-27T06:04:56.624Z,97.28
2023-02-27T06:09:59.397Z,96.38
2023-02-27T06:15:02.178Z,95.37
2023-02-27T06:20:06.972Z,94.51
2023-02-27T06:25:10.214Z,93.81
2023-02-27T06:30:14.057Z,93.25
2023-02-27T06:35:17.116Z,92.92
2023-02-27T06:40:19.923Z,92.14
2023-02-27T06:45:24.410Z,90.85
2023-02-27T06:50:27.682Z,90.38
2023-02-27T06:55:30.478Z,88.83
2023-02-27T07:00:33.569Z,87.69
2023-02-27T07:05:36.546Z,87.34
2023-02-27T07:10:40.168Z,85.91
2023-02-27T07:15:44.741Z,83.45
2023-02-27T07:20:50.220Z,81.73
2023-02-27T07:25:52.931Z,81.09
2023-02-27T07:30:56.398Z,79.28
2023-02-27T07:35:59.819Z,77.46
2023-02-27T07:41:02.773Z,75.19
2023-02-27T07:46:05.788Z,72.98
2023-02-27T07:51:08.886Z,69.63
2023-02-27T07:56:11.869Z,68.17
2023-02-27T08:01:15.098Z,66.72
2023-02-27T08:06:18.105Z,65.49
2023-02-27T08:11:20.878Z,64.34
2023-02-27T08:16:23.660Z,61.11
2023-02-27T08:21:29.095Z,60.04
2023-02-27T08:26:32.325Z,59.35
2023-02-27T08:31:35.220Z,58.15
2023-02-27T08:36:39.272Z,58.01
2023-02-27T08:41:42.037Z,55.77
2023-02-27T08:46:45.228Z,52.87
2023-02-27T08:51:47.910Z,43.67
2023-02-27T08:56:50.706Z,35.98
2023-02-27T09:01:53.670Z,30.06
2023-02-27T09:06:58.088Z,26.72
2023-02-27T09:12:00.757Z,24.06
2023-02-27T09:17:03.662Z,21.87
2023-02-27T09:22:06.477Z,21.88
2023-02-27T09:27:09.279Z,20.79
2023-02-27T09:32:12.696Z,19.76
2023-02-27T09:37:16.565Z,19.18
2023-02-27T09:42:24.619Z,17.66
2023-02-27T09:47:37.385Z,16.84
2023-02-27T09:52:40.189Z,15.75
2023-02-27T09:57:52.101Z,14.97
2023-02-27T10:02:58.839Z,14.36
2023-02-27T10:08:40.208Z,14.43
2023-02-27T10:13:50.686Z,13.55
2023-02-27T10:19:06.297Z,12.68
2023-02-27T10:24:34.344Z,13.29
2023-02-27T10:29:41.721Z,15.53
2023-02-27T10:34:54.031Z,18.35
2023-02-27T10:40:01.251Z,19.91
2023-02-27T10:45:05.942Z,21.25
2023-02-27T10:50:27.209Z,23.82
2023-02-27T10:55:33.079Z,22.73
2023-02-27T11:00:45.304Z,20.96
2023-02-27T11:06:00.721Z,19.59
2023-02-27T11:11:07.179Z,18.39
2023-02-27T11:16:15.410Z,18.70
2023-02-27T11:21:20.521Z,17.24
2023-02-27T11:26:36.353Z,15.17
2023-02-27T11:31:39.985Z,14.20
2023-02-27T11:36:46.625Z,13.41
2023-02-27T11:41:50.199Z,13.20
2023-02-27T11:47:08.588Z,12.60
2023-02-27T11:52:20.994Z,12.17
2023-02-27T11:57:38.651Z,12.48
2023-02-27T12:02:53.467Z,12.64
2023-02-27T12:08:06.680Z,12.60
2023-02-27T12:13:21.335Z,12.82
2023-02-27T12:18:28.568Z,14.27
2023-02-27T12:23:41.718Z,15.85
2023-02-27T12:28:44.520Z,16.57
2023-02-27T12:34:01.770Z,17.80
2023-02-27T12:39:05.510Z,15.92
2023-02-27T12:44:33.267Z,14.98
2023-02-27T12:49:56.529Z,16.69
2023-02-27T12:55:06.216Z,18.87
2023-02-27T13:00:15.170Z,17.98
2023-02-27T13:05:33.028Z,17.00
2023-02-27T13:11:13.019Z,16.09
2023-02-27T13:16:25.972Z,15.24
2023-02-27T13:21:51.472Z,14.94
2023-02-27T13:27:24.230Z,15.09
2023-02-27T13:32:46.778Z,15.23
2023-02-27T13:38:32.530Z,15.51
2023-02-27T13:43:51.128Z,15.95
2023-02-27T13:49:28.080Z,16.25
2023-02-27T13:54:33.990Z,16.74
2023-02-27T13:59:41.902Z,17.18
2023-02-27T14:04:50.949Z,18.17
2023-02-27T14:10:04.394Z,18.61
2023-02-27T14:15:30.545Z,18.93
2023-02-27T14:20:33.233Z,19.59
2023-02-27T14:25:40.145Z,19.65
2023-02-27T14:30:51.486Z,19.27
2023-02-27T14:36:04.321Z,19.49
2023-02-27T14:41:12.653Z,19.97
2023-02-27T14:46:35.237Z,21.35
2023-02-27T14:51:38.637Z,22.72
2023-02-27T14:56:52.895Z,23.97
2023-02-27T15:01:58.429Z,24.55
2023-02-27T15:07:01.562Z,25.26
2023-02-27T15:12:05.107Z,27.24
2023-02-27T15:17:23.125Z,29.70
2023-02-27T15:22:38.882Z,31.77
2023-02-27T15:27:42.610Z,32.56
2023-02-27T15:32:45.335Z,33.04
2023-02-27T15:37:55.030Z,33.52
2023-02-27T15:42:59.558Z,34.47
2023-02-27T15:48:04.105Z,36.43
2023-02-27T15:53:25.525Z,38.24
2023-02-27T15:58:37.614Z,39.81
2023-02-27T16:03:45.048Z,41.38
2023-02-27T16:09:01.665Z,42.72
2023-02-27T16:14:06.162Z,44.24
2023-02-27T16:19:27.414Z,45.27
2023-02-27T16:24:32.032Z,46.56
2023-02-27T16:29:37.267Z,48.04
2023-02-27T16:34:45.488Z,48.75
2023-02-27T16:39:52.285Z,50.24
2023-02-27T16:44:55.126Z,51.53
2023-02-27T16:49:58.350Z,51.74
2023-02-27T16:55:01.524Z,53.22
2023-02-27T17:00:08.955Z,53.93
2023-02-27T17:05:11.774Z,54.27
2023-02-27T17:10:17.108Z,55.53
2023-02-27T17:15:21.031Z,56.17
2023-02-27T17:20:26.180Z,57.33
2023-02-27T17:25:29.189Z,58.92
2023-02-27T17:30:31.962Z,59.79
2023-02-27T17:35:34.884Z,60.29
2023-02-27T17:40:39.391Z,60.85
2023-02-27T17:45:42.316Z,61.19
2023-02-27T17:50:45.338Z,61.83
2023-02-27T17:55:48.353Z,62.85
2023-02-27T18:00:51.162Z,64.31
2023-02-27T18:05:53.895Z,64.73
2023-02-27T18:10:56.655Z,65.48
2023-02-27T18:15:59.448Z,66.76
2023-02-27T18:21:05.307Z,67.75
2023-02-27T18:26:17.196Z,68.55
2023-02-27T18:31:30.397Z,69.50
2023-02-27T18:36:34.368Z,69.60
2023-02-27T18:41:37.923Z,69.66
2023-02-27T18:46:42.507Z,70.32
2023-02-27T18:51:45.484Z,71.23
2023-02-27T18:56:51.099Z,71.86
2023-02-27T19:01:55.210Z,72.52
2023-02-27T19:06:57.925Z,73.20
2023-02-27T19:12:01.004Z,73.97
2023-02-27T19:17:04.315Z,74.77
2023-02-27T19:22:07.112Z,75.77
2023-02-27T19:27:10.822Z,76.07
2023-02-27T19:32:14.827Z,76.83
2023-02-27T19:37:17.825Z,77.79
2023-02-27T19:42:20.575Z,78.54
2023-02-27T19:47:24.004Z,78.88
2023-02-27T19:52:26.905Z,78.92
2023-02-27T19:57:29.636Z,79.44
2023-02-27T20:02:32.721Z,80.01
2023-02-27T20:07:35.605Z,80.55
2023-02-27T20:12:38.317Z,80.77
2023-02-27T20:17:42.185Z,81.14
2023-02-27T20:22:44.968Z,81.91
2023-02-27T20:27:48.237Z,82.64
2023-02-27T20:32:51.087Z,82.98
2023-02-27T20:37:54.154Z,82.86
2023-02-27T20:42:57.674Z,83.73
2023-02-27T20:48:00.351Z,84.42
2023-02-27T20:53:03.141Z,85.04
2023-02-27T20:58:05.947Z,85.08
2023-02-27T21:03:08.712Z,85.57
2023-02-27T21:08:11.556Z,86.33
2023-02-27T21:13:14.684Z,86.80
2023-02-27T21:18:17.377Z,87.02
2023-02-27T21:23:20.068Z,87.00
2023-02-27T21:28:23.192Z,87.40
2023-02-27T21:33:26.554Z,87.71
2023-02-27T21:38:30.135Z,87.91
2023-02-27T21:43:34.079Z,88.00
2023-02-27T21:48:37.789Z,88.46
2023-02-27T21:53:40.578Z,88.65
2023-02-27T21:58:43.268Z,88.63
2023-02-27T22:03:47.615Z,88.85
2023-02-27T22:08:58.614Z,89.23
2023-02-27T22:14:01.820Z,89.47
2023-02-27T22:19:09.840Z,90.02
2023-02-27T22:24:12.566Z,90.17
2023-02-27T22:29:15.533Z,90.29
2023-02-27T22:34:19.215Z,90.23
2023-02-27T22:39:22.289Z,90.90
2023-02-27T22:44:25.083Z,92.11
2023-02-27T22:49:27.792Z,93.04
2023-02-27T22:54:30.784Z,93.65
2023-02-27T22:59:33.587Z,93.51
2023-02-27T23:04:36.390Z,93.91
2023-02-27T23:09:39.185Z,93.88
2023-02-27T23:14:42.136Z,93.67
2023-02-27T23:19:46.031Z,93.51
2023-02-27T23:24:48.820Z,92.78
2023-02-27T23:29:51.622Z,92.22
2023-02-27T23:34:54.303Z,91.96
2023-02-27T23:39:57.019Z,91.74
2023-02-27T23:44:59.767Z,91.37
2023-02-27T23:50:02.617Z,91.26
2023-02-27T23:55:06.778Z,91.27
